createdAt,value
2018-08-30T00:00:49.392Z,99.90
2018-08-30T00:03:17.461Z,99.90
2018-08-30T00:05:45.532Z,99.90
2018-08-30T00:08:13.581Z,99.90
2018-08-30T00:10:41.642Z,99.90
2018-08-30T00:13:09.664Z,99.90
2018-08-30T00:15:37.696Z,99.90
2018-08-30T00:18:05.822Z,99.90
2018-08-30T00:20:33.835Z,99.90
2018-08-30T00:23:01.960Z,99.90
2018-08-30T00:25:30.021Z,99.90
2018-08-30T00:27:58.037Z,99.90
2018-08-30T00:30:26.112Z,99.90
2018-08-30T00:32:54.143Z,99.90
2018-08-30T00:35:22.194Z,99.90
2018-08-30T00:37:50.216Z,99.90
2018-08-30T00:40:18.316Z,99.90
2018-08-30T00:42:46.416Z,99.90
2018-08-30T00:45:14.482Z,99.90
2018-08-30T00:47:42.490Z,99.90
2018-08-30T00:50:10.509Z,99.90
2018-08-30T00:52:38.560Z,99.90
2018-08-30T00:55:06.556Z,99.90
2018-08-30T00:57:34.588Z,99.90
2018-08-30T01:00:02.707Z,99.90
2018-08-30T01:02:30.740Z,99.90
2018-08-30T01:04:58.785Z,99.90
2018-08-30T01:07:26.825Z,99.90
2018-08-30T01:09:54.970Z,99.90
2018-08-30T01:12:22.996Z,99.90
2018-08-30T01:14:51.014Z,99.90
2018-08-30T01:17:19.061Z,99.90
2018-08-30T01:19:47.161Z,99.90
2018-08-30T01:22:15.290Z,99.90
2018-08-30T01:24:43.328Z,99.90
2018-08-30T01:27:11.477Z,99.90
2018-08-30T01:29:39.509Z,99.90
2018-08-30T01:32:14.217Z,99.90
2018-08-30T01:34:42.289Z,99.90
2018-08-30T01:37:10.342Z,99.90
2018-08-30T01:39:38.381Z,99.90
2018-08-30T01:42:06.455Z,99.90
2018-08-30T01:44:34.488Z,99.90
2018-08-30T01:47:02.549Z,99.90
2018-08-30T01:49:30.574Z,99.90
2018-08-30T01:51:58.633Z,99.90
2018-08-30T01:54:26.664Z,99.90
2018-08-30T01:56:54.769Z,99.90
2018-08-30T01:59:22.853Z,99.90
2018-08-30T02:01:51.011Z,99.90
2018-08-30T02:04:19.017Z,99.90
2018-08-30T02:06:47.102Z,99.90
2018-08-30T02:09:15.124Z,99.90
2018-08-30T02:11:43.201Z,99.90
2018-08-30T02:14:11.231Z,99.90
2018-08-30T02:16:39.247Z,99.90
2018-08-30T02:19:07.289Z,99.90
2018-08-30T02:21:35.346Z,99.90
2018-08-30T02:24:03.374Z,99.90
2018-08-30T02:26:31.409Z,99.90
2018-08-30T02:28:59.438Z,99.90
2018-08-30T02:31:27.482Z,99.90
2018-08-30T02:33:55.545Z,99.90
2018-08-30T02:36:23.598Z,99.90
2018-08-30T02:38:51.728Z,99.90
2018-08-30T02:41:19.775Z,99.90
2018-08-30T02:43:47.786Z,99.90
2018-08-30T02:46:15.813Z,99.90
2018-08-30T02:48:43.976Z,99.90
2018-08-30T02:51:12.053Z,99.90
2018-08-30T02:53:40.093Z,99.90
2018-08-30T02:56:08.127Z,99.90
2018-08-30T02:58:36.209Z,99.90
2018-08-30T03:01:04.252Z,99.90
2018-08-30T03:03:32.504Z,99.90
2018-08-30T03:06:00.540Z,99.90
2018-08-30T03:08:28.576Z,99.90
2018-08-30T03:10:56.609Z,99.90
2018-08-30T03:13:24.677Z,99.90
2018-08-30T03:15:52.745Z,99.90
2018-08-30T03:18:20.800Z,99.90
2018-08-30T03:20:48.869Z,99.90
2018-08-30T03:23:16.978Z,99.90
2018-08-30T03:25:45.025Z,99.90
2018-08-30T03:28:13.064Z,99.90
2018-08-30T03:30:41.160Z,99.90
2018-08-30T03:33:09.185Z,99.90
2018-08-30T03:35:37.228Z,99.90
2018-08-30T03:38:05.539Z,99.90
2018-08-30T03:40:33.586Z,99.90
2018-08-30T03:43:01.696Z,99.90
2018-08-30T03:45:29.751Z,99.90
2018-08-30T03:47:57.845Z,99.90
2018-08-30T03:50:25.878Z,99.90
2018-08-30T03:52:54.007Z,99.90
2018-08-30T03:55:22.038Z,99.90
2018-08-30T03:57:50.100Z,99.90
2018-08-30T04:00:18.256Z,99.90
2018-08-30T04:02:46.308Z,99.90
2018-08-30T04:05:14.618Z,99.90
2018-08-30T04:07:42.647Z,99.90
2018-08-30T04:10:10.924Z,99.90
2018-08-30T04:12:38.971Z,99.90
2018-08-30T04:15:07.065Z,99.90
2018-08-30T04:17:35.128Z,99.90
2018-08-30T04:20:03.220Z,99.90
2018-08-30T04:22:31.363Z,99.90
2018-08-30T04:24:59.401Z,99.90
2018-08-30T04:27:27.429Z,99.90
2018-08-30T04:29:55.542Z,99.90
2018-08-30T04:32:23.642Z,99.90
2018-08-30T04:34:51.645Z,99.90
2018-08-30T04:37:19.667Z,99.90
2018-08-30T04:39:47.664Z,99.90
2018-08-30T04:42:15.829Z,99.90
2018-08-30T04:44:43.772Z,99.90
2018-08-30T04:47:11.924Z,99.90
2018-08-30T04:49:39.954Z,99.90
2018-08-30T04:52:08.105Z,99.90
2018-08-30T04:54:36.277Z,99.90
2018-08-30T04:57:04.389Z,99.90
2018-08-30T04:59:32.471Z,99.90
2018-08-30T05:02:00.531Z,99.90
2018-08-30T05:04:28.649Z,99.90
2018-08-30T05:06:56.734Z,99.90
2018-08-30T05:09:24.805Z,99.90
2018-08-30T05:11:52.878Z,99.90
2018-08-30T05:14:20.977Z,99.90
2018-08-30T05:16:49.022Z,99.90
2018-08-30T05:19:17.049Z,99.90
2018-08-30T05:21:45.077Z,99.90
2018-08-30T05:24:13.155Z,99.90
2018-08-30T05:26:41.203Z,99.90
2018-08-30T05:29:09.398Z,99.90
2018-08-30T05:31:37.612Z,99.90
2018-08-30T05:34:05.803Z,99.90
2018-08-30T05:36:33.846Z,99.90
2018-08-30T05:39:01.938Z,99.90
2018-08-30T05:41:30.013Z,99.90
2018-08-30T05:43:58.069Z,99.90
2018-08-30T05:46:26.089Z,99.90
2018-08-30T05:48:54.268Z,99.90
2018-08-30T05:51:22.336Z,99.90
2018-08-30T05:53:50.492Z,99.90
2018-08-30T05:56:18.629Z,99.90
2018-08-30T05:58:46.695Z,99.90
2018-08-30T06:01:14.802Z,99.90
2018-08-30T06:03:42.896Z,99.90
2018-08-30T06:06:10.973Z,99.90
2018-08-30T06:08:39.198Z,99.90
2018-08-30T06:11:07.230Z,99.90
2018-08-30T06:13:35.299Z,99.90
2018-08-30T06:16:03.358Z,99.90
2018-08-30T06:18:31.416Z,99.90
2018-08-30T06:20:59.596Z,99.90
2018-08-30T06:23:27.696Z,99.90
2018-08-30T06:25:55.744Z,99.90
2018-08-30T06:28:23.845Z,99.90
2018-08-30T06:30:51.874Z,99.90
2018-08-30T06:33:19.898Z,99.90
2018-08-30T06:35:47.923Z,99.90
2018-08-30T06:38:16.090Z,99.90
2018-08-30T06:40:44.140Z,99.90
2018-08-30T06:43:12.211Z,99.90
2018-08-30T06:45:40.266Z,99.90
2018-08-30T06:48:08.301Z,99.90
2018-08-30T06:50:36.347Z,99.90
2018-08-30T06:53:04.624Z,99.90
2018-08-30T06:55:32.732Z,99.90
2018-08-30T06:58:00.770Z,99.90
2018-08-30T07:00:28.913Z,99.90
2018-08-30T07:02:56.929Z,99.90
2018-08-30T07:05:25.441Z,99.90
2018-08-30T07:07:54.368Z,99.90
2018-08-30T07:10:22.404Z,99.90
2018-08-30T07:12:50.502Z,99.90
2018-08-30T07:15:18.560Z,99.90
2018-08-30T07:17:46.621Z,99.90
2018-08-30T07:20:14.835Z,99.90
2018-08-30T07:22:42.852Z,99.90
2018-08-30T07:25:10.909Z,99.90
2018-08-30T07:27:38.942Z,99.90
2018-08-30T07:30:09.601Z,99.90
2018-08-30T07:32:37.642Z,99.90
2018-08-30T07:35:05.874Z,99.90
2018-08-30T07:37:33.872Z,99.90
2018-08-30T07:40:01.933Z,99.90
2018-08-30T07:42:29.990Z,99.90
2018-08-30T07:44:58.047Z,99.90
2018-08-30T07:47:26.085Z,99.90
2018-08-30T07:49:54.123Z,99.90
2018-08-30T07:52:22.184Z,99.90
2018-08-30T07:54:50.208Z,99.90
2018-08-30T07:57:18.255Z,99.90
2018-08-30T07:59:46.269Z,99.90
2018-08-30T08:02:14.292Z,99.90
2018-08-30T08:04:42.325Z,99.90
2018-08-30T08:07:10.544Z,99.90
2018-08-30T08:09:38.523Z,99.90
2018-08-30T08:12:06.644Z,99.90
2018-08-30T08:14:34.702Z,99.90
2018-08-30T08:17:02.687Z,99.90
2018-08-30T08:19:30.717Z,99.90
2018-08-30T08:21:58.777Z,99.90
2018-08-30T08:24:26.786Z,99.90
2018-08-30T08:26:54.949Z,99.90
2018-08-30T08:29:22.956Z,99.90
2018-08-30T08:31:51.116Z,99.90
2018-08-30T08:34:19.146Z,99.90
2018-08-30T08:36:47.205Z,99.90
2018-08-30T08:39:15.292Z,99.90
2018-08-30T08:41:43.354Z,99.90
2018-08-30T08:44:11.363Z,99.90
2018-08-30T08:46:39.401Z,99.90
2018-08-30T08:49:07.743Z,99.90
2018-08-30T08:51:35.903Z,99.90
2018-08-30T08:54:04.213Z,99.90
2018-08-30T08:56:32.432Z,99.90
2018-08-30T08:59:00.472Z,99.90
2018-08-30T09:01:28.539Z,99.90
2018-08-30T09:03:56.545Z,99.90
2018-08-30T09:06:24.646Z,99.90
2018-08-30T09:08:52.733Z,99.90
2018-08-30T09:11:20.831Z,99.90
2018-08-30T09:13:48.865Z,99.90
2018-08-30T09:16:16.906Z,99.90
2018-08-30T09:18:44.974Z,99.90
2018-08-30T09:21:12.979Z,99.90
2018-08-30T09:23:41.134Z,99.90
2018-08-30T09:26:09.171Z,99.90
2018-08-30T09:28:37.517Z,99.90
2018-08-30T09:31:05.762Z,99.90
2018-08-30T09:33:33.795Z,99.90
2018-08-30T09:36:01.815Z,99.90
2018-08-30T09:38:29.938Z,99.90
2018-08-30T09:40:58.013Z,99.90
2018-08-30T09:43:26.055Z,99.90
2018-08-30T09:45:54.276Z,99.90
2018-08-30T09:48:22.336Z,99.90
2018-08-30T09:50:50.381Z,99.90
2018-08-30T09:53:19.658Z,99.90
2018-08-30T09:55:47.877Z,99.90
2018-08-30T09:58:15.913Z,99.90
2018-08-30T10:00:44.222Z,99.90
2018-08-30T10:03:12.262Z,99.90
2018-08-30T10:05:40.456Z,99.90
2018-08-30T10:08:08.487Z,99.90
2018-08-30T10:10:36.561Z,99.90
2018-08-30T10:13:04.590Z,99.90
2018-08-30T10:15:32.804Z,99.90
2018-08-30T10:18:00.838Z,99.90
2018-08-30T10:20:28.884Z,99.90
2018-08-30T10:22:56.950Z,99.90
2018-08-30T10:25:25.046Z,99.90
2018-08-30T10:27:59.680Z,99.90
2018-08-30T10:30:27.765Z,99.90
2018-08-30T10:32:55.794Z,99.90
2018-08-30T10:35:23.822Z,99.90
2018-08-30T10:37:51.985Z,99.90
2018-08-30T10:40:20.146Z,99.90
2018-08-30T10:42:48.186Z,99.90
2018-08-30T10:45:16.208Z,99.90
2018-08-30T10:47:44.291Z,99.90
2018-08-30T10:50:12.478Z,99.90
2018-08-30T10:52:40.585Z,99.90
2018-08-30T10:55:08.611Z,99.90
2018-08-30T10:57:36.687Z,99.90
2018-08-30T11:00:04.980Z,99.90
2018-08-30T11:02:33.171Z,99.90
2018-08-30T11:05:01.249Z,99.90
2018-08-30T11:07:29.369Z,99.90
2018-08-30T11:09:57.450Z,99.90
2018-08-30T11:12:25.456Z,99.90
2018-08-30T11:14:53.512Z,99.90
2018-08-30T11:17:21.562Z,99.90
2018-08-30T11:19:49.576Z,99.90
2018-08-30T11:22:17.621Z,99.90
2018-08-30T11:24:45.745Z,99.90
2018-08-30T11:27:13.790Z,99.90
2018-08-30T11:29:41.923Z,99.90
2018-08-30T11:32:09.945Z,99.90
2018-08-30T11:34:38.005Z,99.90
2018-08-30T11:37:06.072Z,99.90
2018-08-30T11:39:34.101Z,99.90
2018-08-30T11:42:02.129Z,99.90
2018-08-30T11:44:30.245Z,99.90
2018-08-30T11:46:58.336Z,99.90
2018-08-30T11:49:26.351Z,98.30
2018-08-30T11:51:54.427Z,97.50
2018-08-30T11:54:22.466Z,97.40
2018-08-30T11:56:50.517Z,99.60
2018-08-30T11:59:18.594Z,98.80
2018-08-30T12:01:46.737Z,99.00
2018-08-30T12:04:14.822Z,98.00
2018-08-30T12:06:43.016Z,98.00
2018-08-30T12:09:11.172Z,97.30
2018-08-30T12:11:39.650Z,98.70
2018-08-30T12:14:07.685Z,99.90
2018-08-30T12:16:35.750Z,98.50
2018-08-30T12:19:03.966Z,98.40
2018-08-30T12:21:32.110Z,97.70
2018-08-30T12:24:01.460Z,96.80
2018-08-30T12:26:29.480Z,98.10
2018-08-30T12:28:57.584Z,97.10
2018-08-30T12:31:25.693Z,95.70
2018-08-30T12:33:53.937Z,95.50
2018-08-30T12:36:21.963Z,94.70
2018-08-30T12:38:49.992Z,94.90
2018-08-30T12:41:18.133Z,95.60
2018-08-30T12:43:46.213Z,96.30
2018-08-30T12:46:14.238Z,95.50
2018-08-30T12:51:16.974Z,94.00
2018-08-30T12:53:44.912Z,92.70
2018-08-30T12:56:13.067Z,92.30
2018-08-30T12:58:41.147Z,93.70
2018-08-30T13:01:09.274Z,97.40
2018-08-30T13:03:37.401Z,95.60
2018-08-30T13:06:05.723Z,96.00
2018-08-30T13:08:33.763Z,93.70
2018-08-30T13:11:01.759Z,94.40
2018-08-30T13:13:29.753Z,95.30
2018-08-30T13:15:57.887Z,94.00
2018-08-30T13:18:25.889Z,93.30
2018-08-30T13:20:53.882Z,93.70
2018-08-30T13:23:22.053Z,95.40
2018-08-30T13:25:50.078Z,95.10
2018-08-30T13:28:18.167Z,93.90
2018-08-30T13:30:46.265Z,93.90
2018-08-30T13:33:19.908Z,93.50
2018-08-30T13:35:45.799Z,95.80
2018-08-30T13:38:14.209Z,95.20
2018-08-30T13:40:42.436Z,96.10
2018-08-30T13:43:10.836Z,95.50
2018-08-30T13:45:38.875Z,98.00
2018-08-30T13:48:09.100Z,96.50
2018-08-30T13:50:37.294Z,96.30
2018-08-30T13:53:05.411Z,94.30
2018-08-30T13:55:34.038Z,94.60
2018-08-30T14:00:36.477Z,94.70
2018-08-30T14:03:04.230Z,95.50
2018-08-30T14:05:32.439Z,93.60
2018-08-30T14:08:00.604Z,93.90
2018-08-30T14:10:28.644Z,94.50
2018-08-30T14:12:56.587Z,94.50
2018-08-30T14:15:24.904Z,92.60
2018-08-30T14:17:52.560Z,92.00
2018-08-30T14:20:20.598Z,94.40
2018-08-30T14:22:48.616Z,91.40
2018-08-30T14:25:16.708Z,91.90
2018-08-30T14:27:44.976Z,94.20
2018-08-30T14:30:12.905Z,94.50
2018-08-30T14:32:40.977Z,95.10
2018-08-30T14:35:09.036Z,97.90
2018-08-30T14:37:37.149Z,96.80
2018-08-30T14:40:05.269Z,92.50
2018-08-30T14:42:33.485Z,97.10
2018-08-30T14:45:01.493Z,95.90
2018-08-30T14:47:29.754Z,93.90
2018-08-30T14:49:57.764Z,91.80
2018-08-30T14:52:25.839Z,92.00
2018-08-30T14:54:53.930Z,91.40
2018-08-30T14:57:21.953Z,91.00
2018-08-30T14:59:50.298Z,89.50
2018-08-30T15:02:18.406Z,91.00
2018-08-30T15:04:46.513Z,91.70
2018-08-30T15:07:14.601Z,91.90
2018-08-30T15:09:42.682Z,91.80
2018-08-30T15:12:10.756Z,90.60
2018-08-30T15:14:38.885Z,90.40
2018-08-30T15:17:06.952Z,90.50
2018-08-30T15:19:34.980Z,90.90
2018-08-30T15:22:03.109Z,93.00
2018-08-30T15:24:31.156Z,91.20
2018-08-30T15:26:59.695Z,91.50
2018-08-30T15:29:27.704Z,91.80
2018-08-30T15:31:55.658Z,90.00
2018-08-30T15:34:23.769Z,89.00
2018-08-30T15:36:51.862Z,88.40
2018-08-30T15:39:19.967Z,90.30
2018-08-30T15:41:47.997Z,93.00
2018-08-30T15:44:16.068Z,92.10
2018-08-30T15:46:44.292Z,88.10
2018-08-30T15:49:12.386Z,91.00
2018-08-30T15:51:40.725Z,89.50
2018-08-30T15:54:08.893Z,90.00
2018-08-30T15:56:36.986Z,88.40
2018-08-30T15:59:05.101Z,89.80
2018-08-30T16:01:33.251Z,90.20
2018-08-30T16:04:01.341Z,90.10
2018-08-30T16:06:29.426Z,89.80
2018-08-30T16:08:57.518Z,89.60
2018-08-30T16:11:25.781Z,90.00
2018-08-30T16:13:54.087Z,91.40
2018-08-30T16:16:22.157Z,87.60
2018-08-30T16:18:50.439Z,91.20
2018-08-30T16:21:18.509Z,89.60
2018-08-30T16:23:47.001Z,88.30
2018-08-30T16:26:15.212Z,91.70
2018-08-30T16:28:43.280Z,90.00
2018-08-30T16:31:11.577Z,91.20
2018-08-30T16:33:39.742Z,88.10
2018-08-30T16:36:08.268Z,92.80
2018-08-30T16:38:36.304Z,90.00
2018-08-30T16:41:04.439Z,92.40
2018-08-30T16:43:32.561Z,93.70
2018-08-30T16:46:00.626Z,91.60
2018-08-30T16:48:28.825Z,90.50
2018-08-30T16:50:57.479Z,92.30
2018-08-30T16:53:25.676Z,91.00
2018-08-30T16:55:53.605Z,92.80
2018-08-30T16:58:21.769Z,91.00
2018-08-30T17:00:50.017Z,91.80
2018-08-30T17:03:18.174Z,92.10
2018-08-30T17:05:46.250Z,92.90
2018-08-30T17:08:14.536Z,91.70
2018-08-30T17:10:43.612Z,91.80
2018-08-30T17:13:11.735Z,92.30
2018-08-30T17:15:40.144Z,91.70
2018-08-30T17:18:08.612Z,92.90
2018-08-30T17:20:39.339Z,95.60
2018-08-30T17:23:07.443Z,93.30
2018-08-30T17:25:35.575Z,94.90
2018-08-30T17:28:03.705Z,94.40
2018-08-30T17:30:31.929Z,95.40
2018-08-30T17:32:59.988Z,94.80
2018-08-30T17:35:28.132Z,93.70
2018-08-30T17:37:56.349Z,94.00
2018-08-30T17:40:24.433Z,95.90
2018-08-30T17:42:52.566Z,97.80
2018-08-30T17:45:20.766Z,95.90
2018-08-30T17:47:48.802Z,96.30
2018-08-30T17:50:17.117Z,97.20
2018-08-30T17:52:45.166Z,97.50
2018-08-30T17:55:13.218Z,98.60
2018-08-30T17:57:41.311Z,97.80
2018-08-30T18:00:10.109Z,99.90
2018-08-30T18:02:38.453Z,99.90
2018-08-30T18:05:06.624Z,99.20
2018-08-30T18:07:34.695Z,99.90
2018-08-30T18:10:02.862Z,99.90
2018-08-30T18:12:31.474Z,99.30
2018-08-30T18:14:59.693Z,99.90
2018-08-30T18:17:27.773Z,99.90
2018-08-30T18:19:55.844Z,99.90
2018-08-30T18:22:23.957Z,99.90
2018-08-30T18:24:51.995Z,99.90
2018-08-30T18:27:20.036Z,99.90
2018-08-30T18:29:48.113Z,99.90
2018-08-30T18:32:16.224Z,99.90
2018-08-30T18:34:44.429Z,99.90
2018-08-30T18:37:12.501Z,99.90
2018-08-30T18:39:40.569Z,99.90
2018-08-30T18:42:08.658Z,99.90
2018-08-30T18:44:36.819Z,99.90
2018-08-30T18:47:04.886Z,99.90
2018-08-30T18:49:33.310Z,99.90
2018-08-30T18:52:01.433Z,99.90
2018-08-30T18:54:29.517Z,99.90
2018-08-30T18:56:57.658Z,99.90
2018-08-30T18:59:25.781Z,99.90
2018-08-30T19:01:54.062Z,99.90
2018-08-30T19:04:22.073Z,99.90
2018-08-30T19:06:50.387Z,99.90
2018-08-30T19:09:18.483Z,99.90
2018-08-30T19:11:47.863Z,99.90
2018-08-30T19:14:16.011Z,99.90
2018-08-30T19:16:44.399Z,99.90
2018-08-30T19:19:19.943Z,99.90
2018-08-30T19:21:48.421Z,99.90
2018-08-30T19:24:16.526Z,99.90
2018-08-30T19:26:44.632Z,99.90
2018-08-30T19:29:13.048Z,99.90
2018-08-30T19:31:41.411Z,99.90
2018-08-30T19:34:09.621Z,99.90
2018-08-30T19:36:37.866Z,99.90
2018-08-30T19:39:31.333Z,99.90
2018-08-30T19:42:01.609Z,99.90
2018-08-30T19:45:01.763Z,99.90
2018-08-30T19:50:20.147Z,99.90
2018-08-30T19:53:00.471Z,99.90
2018-08-30T19:55:38.568Z,99.90
2018-08-30T19:58:07.037Z,99.90
2018-08-30T20:00:35.878Z,99.90
2018-08-30T20:03:14.423Z,99.90
2018-08-30T20:05:48.667Z,99.90
2018-08-30T20:08:28.315Z,99.90
2018-08-30T20:11:02.692Z,99.90
2018-08-30T20:13:34.451Z,99.90
2018-08-30T20:16:02.521Z,99.90
2018-08-30T20:18:30.569Z,99.90
2018-08-30T20:20:58.924Z,99.90
2018-08-30T20:23:27.013Z,99.90
2018-08-30T20:25:56.293Z,99.90
2018-08-30T20:28:25.043Z,99.90
2018-08-30T20:30:53.222Z,99.90
2018-08-30T20:33:21.620Z,99.90
2018-08-30T20:35:49.698Z,99.90
2018-08-30T20:38:17.846Z,99.90
2018-08-30T20:40:46.023Z,99.90
2018-08-30T20:43:16.344Z,99.90
2018-08-30T20:45:44.369Z,99.90
2018-08-30T20:48:15.072Z,99.90
2018-08-30T20:50:43.176Z,99.90
2018-08-30T20:53:11.827Z,99.90
2018-08-30T20:55:40.014Z,99.90
2018-08-30T20:58:08.093Z,99.90
2018-08-30T21:00:36.186Z,99.90
2018-08-30T21:03:06.012Z,99.90
2018-08-30T21:05:35.342Z,99.90
2018-08-30T21:08:03.416Z,99.90
2018-08-30T21:10:31.478Z,99.90
2018-08-30T21:12:59.576Z,99.90
2018-08-30T21:15:27.603Z,99.90
2018-08-30T21:17:55.657Z,99.90
2018-08-30T21:20:23.728Z,99.90
2018-08-30T21:22:51.799Z,99.90
2018-08-30T21:25:19.912Z,99.90
2018-08-30T21:28:10.133Z,99.90
2018-08-30T21:30:45.040Z,99.90
2018-08-30T21:33:22.016Z,99.90
2018-08-30T21:35:53.028Z,99.90
2018-08-30T21:46:44.713Z,99.90
2018-08-30T21:49:15.080Z,99.90
2018-08-30T21:54:53.381Z,99.90
2018-08-30T21:57:39.786Z,99.90
2018-08-30T22:03:36.086Z,99.90
2018-08-30T22:06:09.944Z,99.90
2018-08-30T22:08:44.864Z,99.90
2018-08-30T22:11:22.473Z,99.90
2018-08-30T22:13:50.679Z,99.90
2018-08-30T22:16:18.798Z,99.90
2018-08-30T22:18:46.877Z,99.90
2018-08-30T22:21:14.960Z,99.90
2018-08-30T22:23:42.996Z,99.90
2018-08-30T22:26:11.081Z,99.90
2018-08-30T22:28:39.105Z,99.90
2018-08-30T22:31:07.301Z,99.90
2018-08-30T22:33:35.344Z,99.90
2018-08-30T22:36:03.434Z,99.90
2018-08-30T22:38:33.102Z,99.90
2018-08-30T22:41:01.218Z,99.90
2018-08-30T22:43:29.482Z,99.90
2018-08-30T22:45:57.617Z,99.90
2018-08-30T22:48:28.832Z,99.90
2018-08-30T22:50:56.906Z,99.90
2018-08-30T22:53:27.582Z,99.90
2018-08-30T22:55:55.847Z,99.90
2018-08-30T22:58:23.974Z,99.90
2018-08-30T23:00:53.317Z,99.90
2018-08-30T23:03:21.451Z,99.90
2018-08-30T23:05:49.754Z,99.90
2018-08-30T23:08:17.805Z,99.90
2018-08-30T23:10:45.876Z,99.90
2018-08-30T23:13:16.725Z,99.90
2018-08-30T23:15:44.749Z,99.90
2018-08-30T23:18:14.646Z,99.90
2018-08-30T23:20:42.737Z,99.90
2018-08-30T23:23:10.781Z,99.90
2018-08-30T23:25:38.857Z,99.90
2018-08-30T23:28:07.073Z,99.90
2018-08-30T23:30:35.290Z,99.90
2018-08-30T23:33:03.293Z,99.90
2018-08-30T23:35:31.444Z,99.90
2018-08-30T23:37:59.522Z,99.90
2018-08-30T23:40:27.605Z,99.90
2018-08-30T23:42:55.668Z,99.90
2018-08-30T23:45:23.732Z,99.90
2018-08-30T23:47:51.763Z,99.90
2018-08-30T23:50:19.834Z,99.90
2018-08-30T23:52:48.599Z,99.90
2018-08-30T23:55:16.703Z,99.90
2018-08-30T23:57:55.964Z,99.90
